sensor_id;sensor_type;location;lat;lon;timestamp;temperature;humidity
10662;DHT22;5379;51.034;7.006;2023-04-08T04:30:16;12.70;99.90
10662;DHT22;5379;51.034;7.006;2023-04-08T04:32:44;12.10;99.90
10662;DHT22;5379;51.034;7.006;2023-04-08T04:35:11;12.80;99.90
10662;DHT22;5379;51.034;7.006;2023-04-08T04:37:38;12.70;99.90
10662;DHT22;5379;51.034;7.006;2023-04-08T04:40:06;12.70;99.90
10662;DHT22;5379;51.034;7.006;2023-04-08T04:42:33;12.80;99.90
10662;DHT22;5379;51.034;7.006;2023-04-08T04:45:00;12.70;99.90
10662;DHT22;5379;51.034;7.006;2023-04-08T04:47:28;12.60;99.90
10662;DHT22;5379;51.034;7.006;2023-04-08T04:49:57;12.70;99.90
10662;DHT22;5379;51.034;7.006;2023-04-08T04:52:24;12.50;99.90
10662;DHT22;5379;51.034;7.006;2023-04-08T04:54:51;12.40;99.90
10662;DHT22;5379;51.034;7.006;2023-04-08T04:57:18;12.40;99.90
10662;DHT22;5379;51.034;7.006;2023-04-08T04:59:44;12.40;99.90
10662;DHT22;5379;51.034;7.006;2023-04-08T05:02:11;12.40;99.90
10662;DHT22;5379;51.034;7.006;2023-04-08T05:04:40;12.40;99.90
10662;DHT22;5379;51.034;7.006;2023-04-08T05:07:07;12.30;99.90
10662;DHT22;5379;51.034;7.006;2023-04-08T05:09:34;12.30;99.90
10662;DHT22;5379;51.034;7.006;2023-04-08T05:12:00;12.40;99.90
10662;DHT22;5379;51.034;7.006;2023-04-08T05:14:28;12.30;99.90
10662;DHT22;5379;51.034;7.006;2023-04-08T05:16:55;12.40;99.90
10662;DHT22;5379;51.034;7.006;2023-04-08T05:19:22;12.40;99.90
10662;DHT22;5379;51.034;7.006;2023-04-08T05:21:50;12.40;99.90
10662;DHT22;5379;51.034;7.006;2023-04-08T05:24:17;12.40;99.90
10662;DHT22;5379;51.034;7.006;2023-04-08T05:26:44;12.40;99.90
10662;DHT22;5379;51.034;7.006;2023-04-08T05:29:12;12.50;99.90
10662;DHT22;5379;51.034;7.006;2023-04-08T05:31:39;12.50;99.90
10662;DHT22;5379;51.034;7.006;2023-04-08T05:34:06;12.40;99.90
10662;DHT22;5379;51.034;7.006;2023-04-08T05:36:33;12.40;99.90
10662;DHT22;5379;51.034;7.006;2023-04-08T05:39:01;12.40;99.90
10662;DHT22;5379;51.034;7.006;2023-04-08T05:41:28;12.30;99.90
10662;DHT22;5379;51.034;7.006;2023-04-08T05:43:55;12.30;99.90
10662;DHT22;5379;51.034;7.006;2023-04-08T05:46:22;12.20;99.90
10662;DHT22;5379;51.034;7.006;2023-04-08T05:48:49;12.20;99.90
10662;DHT22;5379;51.034;7.006;2023-04-08T05:51:16;12.10;99.90
10662;DHT22;5379;51.034;7.006;2023-04-08T05:53:44;12.20;99.90
10662;DHT22;5379;51.034;7.006;2023-04-08T05:56:12;12.30;99.90
10662;DHT22;5379;51.034;7.006;2023-04-08T05:58:39;12.40;99.90
10662;DHT22;5379;51.034;7.006;2023-04-08T06:01:06;12.40;99.90
10662;DHT22;5379;51.034;7.006;2023-04-08T06:03:33;12.40;99.90
10662;DHT22;5379;51.034;7.006;2023-04-08T06:06:00;12.40;99.90
10662;DHT22;5379;51.034;7.006;2023-04-08T06:08:27;12.40;99.90
10662;DHT22;5379;51.034;7.006;2023-04-08T06:10:54;12.50;99.90
10662;DHT22;5379;51.034;7.006;2023-04-08T06:13:22;12.50;99.90
10662;DHT22;5379;51.034;7.006;2023-04-08T06:15:50;12.40;99.90
10662;DHT22;5379;51.034;7.006;2023-04-08T06:18:17;12.40;99.90
10662;DHT22;5379;51.034;7.006;2023-04-08T06:20:44;12.40;99.90
10662;DHT22;5379;51.034;7.006;2023-04-08T06:23:11;12.50;99.90
10662;DHT22;5379;51.034;7.006;2023-04-08T06:25:38;12.50;99.90
10662;DHT22;5379;51.034;7.006;2023-04-08T06:28:05;12.50;99.90
10662;DHT22;5379;51.034;7.006;2023-04-08T06:30:33;12.60;99.90
10662;DHT22;5379;51.034;7.006;2023-04-08T06:33:00;12.60;99.90
10662;DHT22;5379;51.034;7.006;2023-04-08T06:35:27;12.70;99.90
10662;DHT22;5379;51.034;7.006;2023-04-08T06:37:54;12.80;99.90
10662;DHT22;5379;51.034;7.006;2023-04-08T06:40:21;12.90;99.90
10662;DHT22;5379;51.034;7.006;2023-04-08T06:42:48;12.90;99.90
10662;DHT22;5379;51.034;7.006;2023-04-08T06:45:15;12.90;99.90
10662;DHT22;5379;51.034;7.006;2023-04-08T06:47:43;12.80;99.90
10662;DHT22;5379;51.034;7.006;2023-04-08T06:50:10;12.90;99.90
10662;DHT22;5379;51.034;7.006;2023-04-08T06:52:37;12.90;99.90
10662;DHT22;5379;51.034;7.006;2023-04-08T06:55:05;12.90;99.90
10662;DHT22;5379;51.034;7.006;2023-04-08T06:57:32;13.00;99.90
10662;DHT22;5379;51.034;7.006;2023-04-08T06:59:58;13.00;99.90
10662;DHT22;5379;51.034;7.006;2023-04-08T07:02:25;13.10;99.90
10662;DHT22;5379;51.034;7.006;2023-04-08T07:04:54;13.00;99.90
10662;DHT22;5379;51.034;7.006;2023-04-08T07:07:21;13.20;99.90
10662;DHT22;5379;51.034;7.006;2023-04-08T07:09:48;13.30;99.90
10662;DHT22;5379;51.034;7.006;2023-04-08T07:12:16;13.40;99.90
10662;DHT22;5379;51.034;7.006;2023-04-08T07:14:42;13.30;99.90
10662;DHT22;5379;51.034;7.006;2023-04-08T07:17:09;13.30;99.90
10662;DHT22;5379;51.034;7.006;2023-04-08T07:19:36;13.10;99.90
10662;DHT22;5379;51.034;7.006;2023-04-08T07:22:05;12.80;99.90
10662;DHT22;5379;51.034;7.006;2023-04-08T07:24:32;12.50;99.90
10662;DHT22;5379;51.034;7.006;2023-04-08T07:26:58;12.50;99.90
10662;DHT22;5379;51.034;7.006;2023-04-08T07:29:26;12.50;99.90
10662;DHT22;5379;51.034;7.006;2023-04-08T07:31:53;12.40;99.90
10662;DHT22;5379;51.034;7.006;2023-04-08T07:34:20;12.50;99.90
10662;DHT22;5379;51.034;7.006;2023-04-08T07:36:47;12.70;99.90
10662;DHT22;5379;51.034;7.006;2023-04-08T07:39:15;12.80;99.90
10662;DHT22;5379;51.034;7.006;2023-04-08T07:41:42;12.70;99.90
10662;DHT22;5379;51.034;7.006;2023-04-08T07:44:09;12.80;99.90
10662;DHT22;5379;51.034;7.006;2023-04-08T07:46:36;12.80;99.90
10662;DHT22;5379;51.034;7.006;2023-04-08T07:49:04;12.70;99.90
10662;DHT22;5379;51.034;7.006;2023-04-08T07:51:31;12.70;99.90
10662;DHT22;5379;51.034;7.006;2023-04-08T07:53:59;13.00;99.90
10662;DHT22;5379;51.034;7.006;2023-04-08T07:56:27;12.90;99.90
10662;DHT22;5379;51.034;7.006;2023-04-08T07:58:54;12.80;99.90
10662;DHT22;5379;51.034;7.006;2023-04-08T08:01:21;12.60;99.90
10662;DHT22;5379;51.034;7.006;2023-04-08T08:03:49;12.50;99.90
10662;DHT22;5379;51.034;7.006;2023-04-08T08:06:16;12.50;99.90
10662;DHT22;5379;51.034;7.006;2023-04-08T08:08:43;12.70;99.90
10662;DHT22;5379;51.034;7.006;2023-04-08T08:11:10;13.00;99.90
10662;DHT22;5379;51.034;7.006;2023-04-08T08:13:39;13.00;99.90
10662;DHT22;5379;51.034;7.006;2023-04-08T08:16:06;13.00;99.90
10662;DHT22;5379;51.034;7.006;2023-04-08T08:18:36;13.10;99.90
10662;DHT22;5379;51.034;7.006;2023-04-08T08:21:04;13.20;99.90
10662;DHT22;5379;51.034;7.006;2023-04-08T08:23:31;13.10;99.90
10662;DHT22;5379;51.034;7.006;2023-04-08T08:25:58;12.10;99.90
10662;DHT22;5379;51.034;7.006;2023-04-08T08:28:26;13.20;99.90
10662;DHT22;5379;51.034;7.006;2023-04-08T08:30:54;13.30;99.90
10662;DHT22;5379;51.034;7.006;2023-04-08T08:33:21;13.10;99.90
10662;DHT22;5379;51.034;7.006;2023-04-08T08:35:48;13.00;99.90
10662;DHT22;5379;51.034;7.006;2023-04-08T08:38:16;13.10;99.90
10662;DHT22;5379;51.034;7.006;2023-04-08T08:40:43;13.00;99.90
10662;DHT22;5379;51.034;7.006;2023-04-08T08:43:11;12.80;99.90
10662;DHT22;5379;51.034;7.006;2023-04-08T08:45:38;12.90;99.90
10662;DHT22;5379;51.034;7.006;2023-04-08T08:48:08;13.30;99.90
10662;DHT22;5379;51.034;7.006;2023-04-08T08:50:35;13.40;99.90
10662;DHT22;5379;51.034;7.006;2023-04-08T08:53:02;13.40;99.90
10662;DHT22;5379;51.034;7.006;2023-04-08T08:55:30;13.30;99.90
10662;DHT22;5379;51.034;7.006;2023-04-08T08:57:58;13.30;99.90
10662;DHT22;5379;51.034;7.006;2023-04-08T09:00:32;13.30;99.90
10662;DHT22;5379;51.034;7.006;2023-04-08T09:03:15;13.40;99.90
10662;DHT22;5379;51.034;7.006;2023-04-08T09:05:53;13.40;99.90
10662;DHT22;5379;51.034;7.006;2023-04-08T09:08:24;13.40;99.90
10662;DHT22;5379;51.034;7.006;2023-04-08T09:10:51;13.70;99.90
10662;DHT22;5379;51.034;7.006;2023-04-08T09:13:18;13.40;99.90
10662;DHT22;5379;51.034;7.006;2023-04-08T09:16:01;13.70;99.90
10662;DHT22;5379;51.034;7.006;2023-04-08T09:18:31;13.90;99.90
10662;DHT22;5379;51.034;7.006;2023-04-08T09:20:59;13.90;99.90
10662;DHT22;5379;51.034;7.006;2023-04-08T09:23:42;13.60;99.90
10662;DHT22;5379;51.034;7.006;2023-04-08T09:26:10;13.50;99.90
10662;DHT22;5379;51.034;7.006;2023-04-08T09:28:39;13.40;99.90
10662;DHT22;5379;51.034;7.006;2023-04-08T09:31:20;13.60;99.90
10662;DHT22;5379;51.034;7.006;2023-04-08T09:33:49;13.50;99.90
10662;DHT22;5379;51.034;7.006;2023-04-08T09:36:16;13.60;99.90
10662;DHT22;5379;51.034;7.006;2023-04-08T09:38:43;13.90;99.90
10662;DHT22;5379;51.034;7.006;2023-04-08T09:41:13;14.30;99.90
10662;DHT22;5379;51.034;7.006;2023-04-08T09:43:42;14.20;99.90
10662;DHT22;5379;51.034;7.006;2023-04-08T09:46:14;14.00;99.90
10662;DHT22;5379;51.034;7.006;2023-04-08T09:48:49;13.80;99.90
10662;DHT22;5379;51.034;7.006;2023-04-08T09:51:23;14.00;99.90
10662;DHT22;5379;51.034;7.006;2023-04-08T09:53:55;14.00;99.90
10662;DHT22;5379;51.034;7.006;2023-04-08T09:56:28;14.50;99.90
10662;DHT22;5379;51.034;7.006;2023-04-08T09:59:00;14.90;99.90
10662;DHT22;5379;51.034;7.006;2023-04-08T10:01:34;15.20;99.90
10662;DHT22;5379;51.034;7.006;2023-04-08T10:04:06;15.70;99.90
10662;DHT22;5379;51.034;7.006;2023-04-08T10:06:35;15.60;99.90
10662;DHT22;5379;51.034;7.006;2023-04-08T10:09:02;15.90;99.90
10662;DHT22;5379;51.034;7.006;2023-04-08T10:11:30;15.70;99.90
10662;DHT22;5379;51.034;7.006;2023-04-08T10:13:57;15.50;99.90
10662;DHT22;5379;51.034;7.006;2023-04-08T10:16:25;15.80;99.90
10662;DHT22;5379;51.034;7.006;2023-04-08T10:18:53;16.10;99.90
10662;DHT22;5379;51.034;7.006;2023-04-08T10:21:33;16.60;99.90
10662;DHT22;5379;51.034;7.006;2023-04-08T10:24:02;16.80;99.90
10662;DHT22;5379;51.034;7.006;2023-04-08T10:26:39;16.80;99.90
10662;DHT22;5379;51.034;7.006;2023-04-08T10:32:01;15.20;99.90
10662;DHT22;5379;51.034;7.006;2023-04-08T10:34:28;14.50;99.90
10662;DHT22;5379;51.034;7.006;2023-04-08T10:36:57;14.40;99.90
10662;DHT22;5379;51.034;7.006;2023-04-08T10:39:29;14.30;99.90
10662;DHT22;5379;51.034;7.006;2023-04-08T10:41:57;14.70;99.90
10662;DHT22;5379;51.034;7.006;2023-04-08T10:44:27;14.50;99.90
10662;DHT22;5379;51.034;7.006;2023-04-08T10:46:54;14.80;99.90
10662;DHT22;5379;51.034;7.006;2023-04-08T10:49:21;15.00;99.90
10662;DHT22;5379;51.034;7.006;2023-04-08T10:51:48;14.80;99.90
10662;DHT22;5379;51.034;7.006;2023-04-08T10:54:17;15.00;99.90
10662;DHT22;5379;51.034;7.006;2023-04-08T10:56:45;15.10;99.90
10662;DHT22;5379;51.034;7.006;2023-04-08T10:59:13;15.10;99.90
10662;DHT22;5379;51.034;7.006;2023-04-08T11:01:43;15.80;99.90
10662;DHT22;5379;51.034;7.006;2023-04-08T11:04:11;15.30;99.90
10662;DHT22;5379;51.034;7.006;2023-04-08T11:06:40;15.00;99.90
10662;DHT22;5379;51.034;7.006;2023-04-08T11:09:07;15.60;99.90
10662;DHT22;5379;51.034;7.006;2023-04-08T11:11:35;16.00;99.90
10662;DHT22;5379;51.034;7.006;2023-04-08T11:14:03;16.20;99.90
10662;DHT22;5379;51.034;7.006;2023-04-08T11:16:30;16.20;99.90
10662;DHT22;5379;51.034;7.006;2023-04-08T11:18:57;16.10;99.90
10662;DHT22;5379;51.034;7.006;2023-04-08T11:21:24;16.10;99.90
10662;DHT22;5379;51.034;7.006;2023-04-08T11:23:54;15.80;99.90
10662;DHT22;5379;51.034;7.006;2023-04-08T11:26:22;15.60;99.90
10662;DHT22;5379;51.034;7.006;2023-04-08T11:28:52;15.30;99.90
10662;DHT22;5379;51.034;7.006;2023-04-08T11:31:21;15.50;99.90
10662;DHT22;5379;51.034;7.006;2023-04-08T11:33:51;15.50;99.90
10662;DHT22;5379;51.034;7.006;2023-04-08T11:36:18;15.70;99.90
10662;DHT22;5379;51.034;7.006;2023-04-08T11:38:46;15.60;99.90
10662;DHT22;5379;51.034;7.006;2023-04-08T11:41:13;15.50;99.90
10662;DHT22;5379;51.034;7.006;2023-04-08T11:43:52;15.20;99.90
10662;DHT22;5379;51.034;7.006;2023-04-08T11:46:19;15.60;99.90
10662;DHT22;5379;51.034;7.006;2023-04-08T11:49:03;16.10;99.90
10662;DHT22;5379;51.034;7.006;2023-04-08T11:51:31;15.50;99.90
10662;DHT22;5379;51.034;7.006;2023-04-08T11:54:03;14.70;99.90
10662;DHT22;5379;51.034;7.006;2023-04-08T11:56:31;14.70;99.90
10662;DHT22;5379;51.034;7.006;2023-04-08T11:59:11;14.40;99.90
10662;DHT22;5379;51.034;7.006;2023-04-08T12:01:38;14.70;99.90
10662;DHT22;5379;51.034;7.006;2023-04-08T12:04:05;14.70;99.90
10662;DHT22;5379;51.034;7.006;2023-04-08T12:06:34;14.90;99.90
10662;DHT22;5379;51.034;7.006;2023-04-08T12:09:01;15.40;99.90
10662;DHT22;5379;51.034;7.006;2023-04-08T12:11:28;15.20;99.90
10662;DHT22;5379;51.034;7.006;2023-04-08T12:13:55;15.10;99.90
10662;DHT22;5379;51.034;7.006;2023-04-08T12:16:23;15.10;99.90
10662;DHT22;5379;51.034;7.006;2023-04-08T12:18:50;15.10;99.90
10662;DHT22;5379;51.034;7.006;2023-04-08T12:21:17;15.20;99.60
10662;DHT22;5379;51.034;7.006;2023-04-08T12:23:44;15.00;98.70
10662;DHT22;5379;51.034;7.006;2023-04-08T12:26:11;15.10;98.20
10662;DHT22;5379;51.034;7.006;2023-04-08T12:28:39;15.20;97.60
10662;DHT22;5379;51.034;7.006;2023-04-08T12:31:06;15.00;96.50
10662;DHT22;5379;51.034;7.006;2023-04-08T12:33:34;14.80;96.20
10662;DHT22;5379;51.034;7.006;2023-04-08T12:36:01;14.70;96.30
10662;DHT22;5379;51.034;7.006;2023-04-08T12:38:28;14.90;96.70
10662;DHT22;5379;51.034;7.006;2023-04-08T12:40:55;14.90;96.10
10662;DHT22;5379;51.034;7.006;2023-04-08T12:43:22;14.80;96.80
10662;DHT22;5379;51.034;7.006;2023-04-08T12:45:49;14.80;96.50
10662;DHT22;5379;51.034;7.006;2023-04-08T12:48:16;14.80;97.20
10662;DHT22;5379;51.034;7.006;2023-04-08T12:50:45;14.50;97.30
10662;DHT22;5379;51.034;7.006;2023-04-08T12:53:12;14.60;97.10
10662;DHT22;5379;51.034;7.006;2023-04-08T12:55:39;14.70;98.00
10662;DHT22;5379;51.034;7.006;2023-04-08T12:58:06;14.60;97.20
10662;DHT22;5379;51.034;7.006;2023-04-08T13:00:33;14.70;96.50
10662;DHT22;5379;51.034;7.006;2023-04-08T13:03:02;14.60;97.20
10662;DHT22;5379;51.034;7.006;2023-04-08T13:05:29;14.50;97.30
10662;DHT22;5379;51.034;7.006;2023-04-08T13:07:57;14.50;96.70
10662;DHT22;5379;51.034;7.006;2023-04-08T13:10:24;14.60;97.10
10662;DHT22;5379;51.034;7.006;2023-04-08T13:12:52;15.10;97.10
10662;DHT22;5379;51.034;7.006;2023-04-08T13:15:19;15.50;96.80
10662;DHT22;5379;51.034;7.006;2023-04-08T13:17:46;15.40;96.30
10662;DHT22;5379;51.034;7.006;2023-04-08T13:20:13;15.10;97.00
10662;DHT22;5379;51.034;7.006;2023-04-08T13:22:40;15.00;96.60
10662;DHT22;5379;51.034;7.006;2023-04-08T13:25:09;15.20;97.20
10662;DHT22;5379;51.034;7.006;2023-04-08T13:27:36;15.90;97.80
10662;DHT22;5379;51.034;7.006;2023-04-08T13:30:03;16.20;96.00
10662;DHT22;5379;51.034;7.006;2023-04-08T13:32:30;16.30;96.00
10662;DHT22;5379;51.034;7.006;2023-04-08T13:34:57;16.30;95.80
10662;DHT22;5379;51.034;7.006;2023-04-08T13:37:24;16.30;96.10
10662;DHT22;5379;51.034;7.006;2023-04-08T13:39:51;16.30;95.90
10662;DHT22;5379;51.034;7.006;2023-04-08T13:42:20;16.30;95.50
10662;DHT22;5379;51.034;7.006;2023-04-08T13:44:47;15.70;95.50
10662;DHT22;5379;51.034;7.006;2023-04-08T13:47:14;15.70;98.40
10662;DHT22;5379;51.034;7.006;2023-04-08T13:49:41;15.60;96.90
10662;DHT22;5379;51.034;7.006;2023-04-08T13:52:08;15.40;97.30
10662;DHT22;5379;51.034;7.006;2023-04-08T13:54:35;15.70;97.20
10662;DHT22;5379;51.034;7.006;2023-04-08T13:57:01;15.70;97.20
10662;DHT22;5379;51.034;7.006;2023-04-08T13:59:30;16.30;99.20
10662;DHT22;5379;51.034;7.006;2023-04-08T14:01:57;16.30;96.80
10662;DHT22;5379;51.034;7.006;2023-04-08T14:04:24;16.00;97.10
10662;DHT22;5379;51.034;7.006;2023-04-08T14:06:51;15.80;97.20
10662;DHT22;5379;51.034;7.006;2023-04-08T14:09:18;16.00;97.70
10662;DHT22;5379;51.034;7.006;2023-04-08T14:11:45;15.60;97.50
10662;DHT22;5379;51.034;7.006;2023-04-08T14:14:12;15.90;98.00
10662;DHT22;5379;51.034;7.006;2023-04-08T14:16:41;16.80;99.30
10662;DHT22;5379;51.034;7.006;2023-04-08T14:19:09;17.30;99.50
10662;DHT22;5379;51.034;7.006;2023-04-08T14:21:36;17.30;96.70
10662;DHT22;5379;51.034;7.006;2023-04-08T14:24:04;17.00;97.30
10662;DHT22;5379;51.034;7.006;2023-04-08T14:26:31;16.40;97.10
10662;DHT22;5379;51.034;7.006;2023-04-08T14:29:01;16.10;98.50
10662;DHT22;5379;51.034;7.006;2023-04-08T14:31:28;16.20;98.10
10662;DHT22;5379;51.034;7.006;2023-04-08T14:33:56;16.30;98.40
10662;DHT22;5379;51.034;7.006;2023-04-08T14:36:23;16.40;98.70
10662;DHT22;5379;51.034;7.006;2023-04-08T14:38:50;16.20;98.70
10662;DHT22;5379;51.034;7.006;2023-04-08T14:41:17;16.10;98.90
10662;DHT22;5379;51.034;7.006;2023-04-08T14:43:44;15.80;98.80
10662;DHT22;5379;51.034;7.006;2023-04-08T14:46:11;16.10;99.70
10662;DHT22;5379;51.034;7.006;2023-04-08T14:48:38;16.00;99.40
10662;DHT22;5379;51.034;7.006;2023-04-08T14:51:06;16.40;99.70
10662;DHT22;5379;51.034;7.006;2023-04-08T14:53:33;17.10;99.70
10662;DHT22;5379;51.034;7.006;2023-04-08T14:56:01;16.60;99.10
10662;DHT22;5379;51.034;7.006;2023-04-08T14:58:28;16.60;99.70
10662;DHT22;5379;51.034;7.006;2023-04-08T15:00:55;16.70;99.60
10662;DHT22;5379;51.034;7.006;2023-04-08T15:03:22;16.30;99.60
10662;DHT22;5379;51.034;7.006;2023-04-08T15:05:50;16.30;99.60
10662;DHT22;5379;51.034;7.006;2023-04-08T15:08:18;16.20;99.90
10662;DHT22;5379;51.034;7.006;2023-04-08T15:10:45;15.80;99.90
10662;DHT22;5379;51.034;7.006;2023-04-08T15:13:12;15.90;99.90
10662;DHT22;5379;51.034;7.006;2023-04-08T15:15:40;16.00;99.90
10662;DHT22;5379;51.034;7.006;2023-04-08T15:18:06;16.40;99.90
10662;DHT22;5379;51.034;7.006;2023-04-08T15:20:33;16.00;99.70
10662;DHT22;5379;51.034;7.006;2023-04-08T15:23:00;15.70;99.90
10662;DHT22;5379;51.034;7.006;2023-04-08T15:25:29;15.60;99.90
10662;DHT22;5379;51.034;7.006;2023-04-08T15:27:57;15.60;99.90
10662;DHT22;5379;51.034;7.006;2023-04-08T15:30:24;15.50;99.90
10662;DHT22;5379;51.034;7.006;2023-04-08T15:32:52;15.50;99.90
10662;DHT22;5379;51.034;7.006;2023-04-08T15:35:19;15.40;99.90
10662;DHT22;5379;51.034;7.006;2023-04-08T15:37:46;15.40;99.90
10662;DHT22;5379;51.034;7.006;2023-04-08T15:40:13;15.30;99.90
10662;DHT22;5379;51.034;7.006;2023-04-08T15:42:41;15.20;99.90
10662;DHT22;5379;51.034;7.006;2023-04-08T15:45:09;15.30;99.90
10662;DHT22;5379;51.034;7.006;2023-04-08T15:47:36;15.40;99.90
10662;DHT22;5379;51.034;7.006;2023-04-08T15:50:04;15.10;99.90
10662;DHT22;5379;51.034;7.006;2023-04-08T15:52:31;15.20;99.90
10662;DHT22;5379;51.034;7.006;2023-04-08T15:54:59;15.40;99.90
10662;DHT22;5379;51.034;7.006;2023-04-08T15:57:28;15.20;99.90
10662;DHT22;5379;51.034;7.006;2023-04-08T15:59:58;15.20;99.90
10662;DHT22;5379;51.034;7.006;2023-04-08T16:02:25;15.00;99.90
10662;DHT22;5379;51.034;7.006;2023-04-08T16:04:52;14.90;99.90
10662;DHT22;5379;51.034;7.006;2023-04-08T16:07:19;14.50;99.90
10662;DHT22;5379;51.034;7.006;2023-04-08T16:09:46;14.60;99.90
10662;DHT22;5379;51.034;7.006;2023-04-08T16:12:13;14.80;99.90
10662;DHT22;5379;51.034;7.006;2023-04-08T16:14:40;15.00;99.90
10662;DHT22;5379;51.034;7.006;2023-04-08T16:17:09;15.00;99.90
10662;DHT22;5379;51.034;7.006;2023-04-08T16:19:36;15.00;99.90
10662;DHT22;5379;51.034;7.006;2023-04-08T16:22:03;15.20;99.90
10662;DHT22;5379;51.034;7.006;2023-04-08T16:24:30;15.20;99.90
10662;DHT22;5379;51.034;7.006;2023-04-08T16:27:00;15.30;99.90
10662;DHT22;5379;51.034;7.006;2023-04-08T16:29:27;15.20;99.90
10662;DHT22;5379;51.034;7.006;2023-04-08T16:31:54;15.20;99.90
10662;DHT22;5379;51.034;7.006;2023-04-08T16:34:22;14.80;99.90
10662;DHT22;5379;51.034;7.006;2023-04-08T16:36:49;14.50;99.90
10662;DHT22;5379;51.034;7.006;2023-04-08T16:39:16;14.50;99.90
10662;DHT22;5379;51.034;7.006;2023-04-08T16:41:43;14.20;99.90
10662;DHT22;5379;51.034;7.006;2023-04-08T16:44:10;14.10;99.90
10662;DHT22;5379;51.034;7.006;2023-04-08T16:46:37;14.30;99.90
10662;DHT22;5379;51.034;7.006;2023-04-08T16:49:04;14.20;99.90
10662;DHT22;5379;51.034;7.006;2023-04-08T16:51:32;14.20;99.90
10662;DHT22;5379;51.034;7.006;2023-04-08T16:53:59;14.30;99.90
10662;DHT22;5379;51.034;7.006;2023-04-08T16:56:26;14.40;99.90
10662;DHT22;5379;51.034;7.006;2023-04-08T16:58:53;14.40;99.90
10662;DHT22;5379;51.034;7.006;2023-04-08T17:01:20;14.50;99.90
10662;DHT22;5379;51.034;7.006;2023-04-08T17:03:47;14.40;99.90
10662;DHT22;5379;51.034;7.006;2023-04-08T17:06:14;14.70;99.90
10662;DHT22;5379;51.034;7.006;2023-04-08T17:08:43;14.60;99.90
10662;DHT22;5379;51.034;7.006;2023-04-08T17:11:11;14.50;99.90
10662;DHT22;5379;51.034;7.006;2023-04-08T17:13:39;14.30;99.90
10662;DHT22;5379;51.034;7.006;2023-04-08T17:16:10;14.50;99.90
10662;DHT22;5379;51.034;7.006;2023-04-08T17:18:37;14.70;99.90
10662;DHT22;5379;51.034;7.006;2023-04-08T17:21:04;14.80;99.90
10662;DHT22;5379;51.034;7.006;2023-04-08T17:23:31;15.10;99.90
10662;DHT22;5379;51.034;7.006;2023-04-08T17:26:04;15.20;99.90
10662;DHT22;5379;51.034;7.006;2023-04-08T17:28:31;14.80;99.90
10662;DHT22;5379;51.034;7.006;2023-04-08T17:30:58;14.60;99.90
10662;DHT22;5379;51.034;7.006;2023-04-08T17:33:25;14.50;99.90
10662;DHT22;5379;51.034;7.006;2023-04-08T17:35:53;14.40;99.90
10662;DHT22;5379;51.034;7.006;2023-04-08T17:38:20;14.40;99.90
10662;DHT22;5379;51.034;7.006;2023-04-08T17:40:47;14.30;99.90
10662;DHT22;5379;51.034;7.006;2023-04-08T17:43:15;14.30;99.90
10662;DHT22;5379;51.034;7.006;2023-04-08T17:45:42;14.40;99.90
10662;DHT22;5379;51.034;7.006;2023-04-08T17:48:09;14.20;99.90
10662;DHT22;5379;51.034;7.006;2023-04-08T17:50:36;14.20;99.90
10662;DHT22;5379;51.034;7.006;2023-04-08T17:53:03;14.30;99.90
10662;DHT22;5379;51.034;7.006;2023-04-08T17:55:30;14.40;99.90
10662;DHT22;5379;51.034;7.006;2023-04-08T17:57:57;14.40;99.90
10662;DHT22;5379;51.034;7.006;2023-04-08T18:00:26;14.30;99.90
10662;DHT22;5379;51.034;7.006;2023-04-08T18:02:53;14.10;99.90
10662;DHT22;5379;51.034;7.006;2023-04-08T18:05:20;14.10;99.90
10662;DHT22;5379;51.034;7.006;2023-04-08T18:07:47;14.00;99.90
10662;DHT22;5379;51.034;7.006;2023-04-08T18:10:14;14.00;99.90
10662;DHT22;5379;51.034;7.006;2023-04-08T18:12:42;14.10;99.90
10662;DHT22;5379;51.034;7.006;2023-04-08T18:15:09;14.20;99.90
10662;DHT22;5379;51.034;7.006;2023-04-08T18:17:38;14.20;99.90
10662;DHT22;5379;51.034;7.006;2023-04-08T18:20:06;14.10;99.90
10662;DHT22;5379;51.034;7.006;2023-04-08T18:22:33;14.00;99.90
10662;DHT22;5379;51.034;7.006;2023-04-08T18:25:00;14.00;99.90
10662;DHT22;5379;51.034;7.006;2023-04-08T18:27:27;13.90;99.90
10662;DHT22;5379;51.034;7.006;2023-04-08T18:29:54;13.80;99.90
10662;DHT22;5379;51.034;7.006;2023-04-08T18:32:21;13.80;99.90
10662;DHT22;5379;51.034;7.006;2023-04-08T18:34:51;13.70;99.90
10662;DHT22;5379;51.034;7.006;2023-04-08T18:37:18;13.70;99.90
10662;DHT22;5379;51.034;7.006;2023-04-08T18:39:45;13.70;99.90
10662;DHT22;5379;51.034;7.006;2023-04-08T18:42:12;13.80;99.90
10662;DHT22;5379;51.034;7.006;2023-04-08T18:44:39;15.30;99.90
10662;DHT22;5379;51.034;7.006;2023-04-08T18:47:07;13.90;99.90
10662;DHT22;5379;51.034;7.006;2023-04-08T18:49:34;13.80;99.90
10662;DHT22;5379;51.034;7.006;2023-04-08T18:52:04;13.80;99.90
10662;DHT22;5379;51.034;7.006;2023-04-08T18:54:31;13.70;99.90
10662;DHT22;5379;51.034;7.006;2023-04-08T18:56:58;13.70;99.90
10662;DHT22;5379;51.034;7.006;2023-04-08T18:59:25;13.70;99.90
10662;DHT22;5379;51.034;7.006;2023-04-08T19:01:53;13.60;99.90
10662;DHT22;5379;51.034;7.006;2023-04-08T19:04:20;13.60;99.90
10662;DHT22;5379;51.034;7.006;2023-04-08T19:06:47;13.60;99.90
10662;DHT22;5379;51.034;7.006;2023-04-08T19:09:16;13.60;99.90
10662;DHT22;5379;51.034;7.006;2023-04-08T19:11:43;13.60;99.90
10662;DHT22;5379;51.034;7.006;2023-04-08T19:14:10;13.60;99.90
10662;DHT22;5379;51.034;7.006;2023-04-08T19:16:37;13.60;99.90
10662;DHT22;5379;51.034;7.006;2023-04-08T19:19:04;13.50;99.90
10662;DHT22;5379;51.034;7.006;2023-04-08T19:21:31;13.50;99.90
10662;DHT22;5379;51.034;7.006;2023-04-08T19:24:02;13.50;99.90
10662;DHT22;5379;51.034;7.006;2023-04-08T19:26:31;13.50;99.90
10662;DHT22;5379;51.034;7.006;2023-04-08T19:28:58;13.50;99.90
10662;DHT22;5379;51.034;7.006;2023-04-08T19:31:25;13.50;99.90
10662;DHT22;5379;51.034;7.006;2023-04-08T19:33:53;13.40;99.90
10662;DHT22;5379;51.034;7.006;2023-04-08T19:36:20;13.30;99.90
10662;DHT22;5379;51.034;7.006;2023-04-08T19:38:47;13.30;99.90
10662;DHT22;5379;51.034;7.006;2023-04-08T19:41:13;13.20;99.90
10662;DHT22;5379;51.034;7.006;2023-04-08T19:43:42;13.10;99.90
10662;DHT22;5379;51.034;7.006;2023-04-08T19:46:09;13.00;99.90
10662;DHT22;5379;51.034;7.006;2023-04-08T19:48:36;13.00;99.90
10662;DHT22;5379;51.034;7.006;2023-04-08T19:51:03;13.00;99.90
10662;DHT22;5379;51.034;7.006;2023-04-08T19:53:30;13.00;99.90
10662;DHT22;5379;51.034;7.006;2023-04-08T19:56:00;12.90;99.90
10662;DHT22;5379;51.034;7.006;2023-04-08T19:58:27;12.90;99.90
10662;DHT22;5379;51.034;7.006;2023-04-08T20:00:55;12.90;99.90
10662;DHT22;5379;51.034;7.006;2023-04-08T20:03:22;13.00;99.90
10662;DHT22;5379;51.034;7.006;2023-04-08T20:05:50;13.10;99.90
10662;DHT22;5379;51.034;7.006;2023-04-08T20:08:17;13.10;99.90
10662;DHT22;5379;51.034;7.006;2023-04-08T20:10:44;13.00;99.90
10662;DHT22;5379;51.034;7.006;2023-04-08T20:13:13;12.90;99.90
10662;DHT22;5379;51.034;7.006;2023-04-08T20:15:40;12.90;99.90
10662;DHT22;5379;51.034;7.006;2023-04-08T20:18:08;12.80;99.90
10662;DHT22;5379;51.034;7.006;2023-04-08T20:20:36;12.80;99.90